sensor_id;sensor_type;location;lat;lon;timestamp;P1;durP1;ratioP1;P2;durP2;ratioP2
14048;SDS011;7099;53.922;10.728;2022-12-08T00:03:03;6.43;;;3.50;;
14048;SDS011;7099;53.922;10.728;2022-12-08T00:07:08;4.10;;;3.70;;
14048;SDS011;7099;53.922;10.728;2022-12-08T00:11:32;5.87;;;3.13;;
14048;SDS011;7099;53.922;10.728;2022-12-08T00:15:37;8.27;;;3.63;;
14048;SDS011;7099;53.922;10.728;2022-12-08T00:19:42;10.63;;;3.50;;
14048;SDS011;7099;53.922;10.728;2022-12-08T00:23:47;7.63;;;3.40;;
14048;SDS011;7099;53.922;10.728;2022-12-08T00:27:52;5.90;;;3.77;;
14048;SDS011;7099;53.922;10.728;2022-12-08T00:31:57;4.93;;;3.67;;
14048;SDS011;7099;53.922;10.728;2022-12-08T00:36:09;5.20;;;3.70;;
14048;SDS011;7099;53.922;10.728;2022-12-08T00:40:17;4.93;;;3.63;;
14048;SDS011;7099;53.922;10.728;2022-12-08T00:44:22;6.43;;;4.00;;
14048;SDS011;7099;53.922;10.728;2022-12-08T00:48:27;7.80;;;3.93;;
14048;SDS011;7099;53.922;10.728;2022-12-08T00:52:32;7.13;;;4.53;;
14048;SDS011;7099;53.922;10.728;2022-12-08T00:56:37;9.07;;;4.20;;
14048;SDS011;7099;53.922;10.728;2022-12-08T01:00:42;8.50;;;4.43;;
14048;SDS011;7099;53.922;10.728;2022-12-08T01:04:48;6.80;;;4.27;;
14048;SDS011;7099;53.922;10.728;2022-12-08T01:08:53;7.80;;;4.30;;
14048;SDS011;7099;53.922;10.728;2022-12-08T01:12:57;8.53;;;4.30;;
14048;SDS011;7099;53.922;10.728;2022-12-08T01:17:02;9.80;;;4.60;;
14048;SDS011;7099;53.922;10.728;2022-12-08T01:21:07;8.60;;;5.20;;
14048;SDS011;7099;53.922;10.728;2022-12-08T01:25:12;8.60;;;5.13;;
14048;SDS011;7099;53.922;10.728;2022-12-08T01:29:17;8.30;;;5.00;;
14048;SDS011;7099;53.922;10.728;2022-12-08T01:33:22;5.73;;;4.80;;
14048;SDS011;7099;53.922;10.728;2022-12-08T01:37:28;6.10;;;5.17;;
14048;SDS011;7099;53.922;10.728;2022-12-08T01:41:34;7.80;;;5.47;;
14048;SDS011;7099;53.922;10.728;2022-12-08T01:45:40;6.93;;;5.03;;
14048;SDS011;7099;53.922;10.728;2022-12-08T01:49:46;7.13;;;5.20;;
14048;SDS011;7099;53.922;10.728;2022-12-08T01:53:51;6.10;;;4.63;;
14048;SDS011;7099;53.922;10.728;2022-12-08T01:58:10;7.37;;;5.40;;
14048;SDS011;7099;53.922;10.728;2022-12-08T02:02:32;8.60;;;4.40;;
14048;SDS011;7099;53.922;10.728;2022-12-08T02:06:52;5.43;;;4.60;;
14048;SDS011;7099;53.922;10.728;2022-12-08T02:10:58;5.57;;;4.43;;
14048;SDS011;7099;53.922;10.728;2022-12-08T02:15:03;5.70;;;4.33;;
14048;SDS011;7099;53.922;10.728;2022-12-08T02:23:50;7.50;;;5.27;;
14048;SDS011;7099;53.922;10.728;2022-12-08T02:41:48;6.50;;;5.23;;
14048;SDS011;7099;53.922;10.728;2022-12-08T02:46:07;8.20;;;5.40;;
14048;SDS011;7099;53.922;10.728;2022-12-08T02:50:19;6.80;;;5.80;;
14048;SDS011;7099;53.922;10.728;2022-12-08T02:54:24;6.10;;;4.80;;
14048;SDS011;7099;53.922;10.728;2022-12-08T03:07:24;9.03;;;5.50;;
14048;SDS011;7099;53.922;10.728;2022-12-08T03:11:55;10.53;;;7.10;;
14048;SDS011;7099;53.922;10.728;2022-12-08T03:16:08;10.70;;;6.90;;
14048;SDS011;7099;53.922;10.728;2022-12-08T03:20:19;10.27;;;7.30;;
14048;SDS011;7099;53.922;10.728;2022-12-08T04:34:24;14.67;;;9.87;;
14048;SDS011;7099;53.922;10.728;2022-12-08T04:38:29;15.83;;;9.20;;
14048;SDS011;7099;53.922;10.728;2022-12-08T04:42:34;15.63;;;10.07;;
14048;SDS011;7099;53.922;10.728;2022-12-08T04:46:39;13.53;;;9.00;;
14048;SDS011;7099;53.922;10.728;2022-12-08T04:50:46;15.10;;;10.07;;
14048;SDS011;7099;53.922;10.728;2022-12-08T04:54:51;13.83;;;9.03;;
14048;SDS011;7099;53.922;10.728;2022-12-08T04:58:56;12.37;;;9.40;;
14048;SDS011;7099;53.922;10.728;2022-12-08T05:03:01;13.80;;;8.70;;
14048;SDS011;7099;53.922;10.728;2022-12-08T05:07:06;13.33;;;8.50;;
14048;SDS011;7099;53.922;10.728;2022-12-08T05:11:12;14.63;;;9.20;;
14048;SDS011;7099;53.922;10.728;2022-12-08T05:15:17;12.10;;;8.30;;
14048;SDS011;7099;53.922;10.728;2022-12-08T05:19:22;12.57;;;8.00;;
14048;SDS011;7099;53.922;10.728;2022-12-08T05:23:27;14.00;;;9.37;;
14048;SDS011;7099;53.922;10.728;2022-12-08T05:27:33;14.80;;;8.97;;
14048;SDS011;7099;53.922;10.728;2022-12-08T05:31:38;14.37;;;9.77;;
14048;SDS011;7099;53.922;10.728;2022-12-08T05:35:43;13.87;;;9.50;;
14048;SDS011;7099;53.922;10.728;2022-12-08T05:39:48;17.37;;;9.80;;
14048;SDS011;7099;53.922;10.728;2022-12-08T05:43:53;16.30;;;9.80;;
14048;SDS011;7099;53.922;10.728;2022-12-08T05:47:58;22.60;;;13.90;;
14048;SDS011;7099;53.922;10.728;2022-12-08T05:52:03;16.37;;;9.67;;
14048;SDS011;7099;53.922;10.728;2022-12-08T05:56:08;14.60;;;9.27;;
14048;SDS011;7099;53.922;10.728;2022-12-08T06:00:15;16.40;;;10.67;;
14048;SDS011;7099;53.922;10.728;2022-12-08T06:04:21;17.57;;;10.27;;
14048;SDS011;7099;53.922;10.728;2022-12-08T06:08:26;16.87;;;10.70;;
14048;SDS011;7099;53.922;10.728;2022-12-08T06:12:31;17.93;;;10.57;;
14048;SDS011;7099;53.922;10.728;2022-12-08T06:16:36;14.70;;;9.50;;
14048;SDS011;7099;53.922;10.728;2022-12-08T06:20:41;17.93;;;11.67;;
14048;SDS011;7099;53.922;10.728;2022-12-08T06:24:46;15.30;;;10.20;;
14048;SDS011;7099;53.922;10.728;2022-12-08T06:28:51;15.07;;;10.07;;
14048;SDS011;7099;53.922;10.728;2022-12-08T09:37:06;16.97;;;10.47;;
14048;SDS011;7099;53.922;10.728;2022-12-08T09:45:51;17.70;;;9.73;;
14048;SDS011;7099;53.922;10.728;2022-12-08T09:54:41;16.47;;;9.00;;
14048;SDS011;7099;53.922;10.728;2022-12-08T09:58:48;15.47;;;9.00;;
14048;SDS011;7099;53.922;10.728;2022-12-08T10:03:20;23.90;;;11.47;;
14048;SDS011;7099;53.922;10.728;2022-12-08T10:07:38;24.63;;;13.03;;
14048;SDS011;7099;53.922;10.728;2022-12-08T10:41:30;16.60;;;10.03;;
14048;SDS011;7099;53.922;10.728;2022-12-08T10:45:38;18.23;;;10.40;;
14048;SDS011;7099;53.922;10.728;2022-12-08T10:49:45;17.70;;;10.20;;
14048;SDS011;7099;53.922;10.728;2022-12-08T10:53:49;21.10;;;10.73;;
14048;SDS011;7099;53.922;10.728;2022-12-08T10:57:54;18.70;;;10.07;;
14048;SDS011;7099;53.922;10.728;2022-12-08T11:01:59;17.00;;;9.80;;
14048;SDS011;7099;53.922;10.728;2022-12-08T11:06:10;14.20;;;8.77;;
14048;SDS011;7099;53.922;10.728;2022-12-08T11:10:24;16.40;;;8.97;;
14048;SDS011;7099;53.922;10.728;2022-12-08T11:18:53;10.47;;;7.30;;
14048;SDS011;7099;53.922;10.728;2022-12-08T11:23:00;23.90;;;14.50;;
14048;SDS011;7099;53.922;10.728;2022-12-08T11:27:07;20.07;;;9.70;;
14048;SDS011;7099;53.922;10.728;2022-12-08T11:31:34;14.10;;;8.80;;
14048;SDS011;7099;53.922;10.728;2022-12-08T11:35:48;16.13;;;9.57;;
14048;SDS011;7099;53.922;10.728;2022-12-08T11:40:16;12.70;;;7.90;;
14048;SDS011;7099;53.922;10.728;2022-12-08T11:45:25;15.10;;;8.30;;
14048;SDS011;7099;53.922;10.728;2022-12-08T11:49:16;14.10;;;8.80;;
14048;SDS011;7099;53.922;10.728;2022-12-08T11:53:25;15.83;;;8.40;;
14048;SDS011;7099;53.922;10.728;2022-12-08T11:57:39;12.50;;;7.67;;
14048;SDS011;7099;53.922;10.728;2022-12-08T12:01:44;14.50;;;7.47;;
14048;SDS011;7099;53.922;10.728;2022-12-08T12:10:49;11.70;;;7.17;;
14048;SDS011;7099;53.922;10.728;2022-12-08T12:19:36;18.40;;;8.57;;
14048;SDS011;7099;53.922;10.728;2022-12-08T12:23:44;38.77;;;13.73;;
14048;SDS011;7099;53.922;10.728;2022-12-08T12:28:04;153.10;;;27.10;;
14048;SDS011;7099;53.922;10.728;2022-12-08T12:32:11;60.80;;;8.87;;
14048;SDS011;7099;53.922;10.728;2022-12-08T12:36:17;36.03;;;15.00;;
14048;SDS011;7099;53.922;10.728;2022-12-08T12:40:26;30.33;;;6.33;;
14048;SDS011;7099;53.922;10.728;2022-12-08T12:44:39;46.57;;;6.90;;
14048;SDS011;7099;53.922;10.728;2022-12-08T12:48:44;11.10;;;6.17;;
14048;SDS011;7099;53.922;10.728;2022-12-08T12:52:49;26.03;;;6.13;;
14048;SDS011;7099;53.922;10.728;2022-12-08T13:05:26;15.60;;;7.00;;
14048;SDS011;7099;53.922;10.728;2022-12-08T13:09:35;17.47;;;6.13;;
14048;SDS011;7099;53.922;10.728;2022-12-08T13:13:59;12.33;;;6.87;;
14048;SDS011;7099;53.922;10.728;2022-12-08T13:18:15;18.60;;;6.27;;
14048;SDS011;7099;53.922;10.728;2022-12-08T13:31:18;38.83;;;6.67;;
14048;SDS011;7099;53.922;10.728;2022-12-08T13:35:39;19.07;;;6.33;;
14048;SDS011;7099;53.922;10.728;2022-12-08T13:39:52;14.53;;;7.77;;
14048;SDS011;7099;53.922;10.728;2022-12-08T13:44:08;35.13;;;6.70;;
14048;SDS011;7099;53.922;10.728;2022-12-08T13:48:47;16.27;;;5.00;;
14048;SDS011;7099;53.922;10.728;2022-12-08T13:53:22;34.40;;;5.83;;
14048;SDS011;7099;53.922;10.728;2022-12-08T13:58:01;21.93;;;5.67;;
14048;SDS011;7099;53.922;10.728;2022-12-08T14:06:47;14.33;;;7.40;;
14048;SDS011;7099;53.922;10.728;2022-12-08T14:11:02;63.60;;;12.87;;
14048;SDS011;7099;53.922;10.728;2022-12-08T14:15:09;14.80;;;8.87;;
14048;SDS011;7099;53.922;10.728;2022-12-08T14:23:25;41.73;;;9.60;;
14048;SDS011;7099;53.922;10.728;2022-12-08T14:27:32;14.60;;;8.27;;
14048;SDS011;7099;53.922;10.728;2022-12-08T14:31:39;13.40;;;7.33;;
14048;SDS011;7099;53.922;10.728;2022-12-08T14:35:48;13.93;;;6.87;;
14048;SDS011;7099;53.922;10.728;2022-12-08T14:39:57;10.53;;;6.03;;
14048;SDS011;7099;53.922;10.728;2022-12-08T14:44:39;13.40;;;7.00;;
14048;SDS011;7099;53.922;10.728;2022-12-08T14:48:44;14.73;;;7.17;;
14048;SDS011;7099;53.922;10.728;2022-12-08T14:52:50;11.47;;;6.33;;
14048;SDS011;7099;53.922;10.728;2022-12-08T14:56:56;8.23;;;5.40;;
14048;SDS011;7099;53.922;10.728;2022-12-08T15:01:05;11.53;;;5.50;;
14048;SDS011;7099;53.922;10.728;2022-12-08T15:05:13;10.17;;;6.60;;
14048;SDS011;7099;53.922;10.728;2022-12-08T15:09:27;11.80;;;7.73;;
14048;SDS011;7099;53.922;10.728;2022-12-08T15:13:42;11.53;;;6.67;;
14048;SDS011;7099;53.922;10.728;2022-12-08T15:17:50;17.30;;;6.20;;
14048;SDS011;7099;53.922;10.728;2022-12-08T15:22:14;8.80;;;5.57;;
14048;SDS011;7099;53.922;10.728;2022-12-08T15:26:24;7.60;;;5.33;;
14048;SDS011;7099;53.922;10.728;2022-12-08T15:30:31;7.73;;;5.70;;
14048;SDS011;7099;53.922;10.728;2022-12-08T15:34:37;8.17;;;6.00;;
14048;SDS011;7099;53.922;10.728;2022-12-08T15:38:42;7.90;;;5.50;;
14048;SDS011;7099;53.922;10.728;2022-12-08T15:42:47;10.07;;;5.77;;
14048;SDS011;7099;53.922;10.728;2022-12-08T15:46:52;9.10;;;5.57;;
14048;SDS011;7099;53.922;10.728;2022-12-08T15:50:58;7.83;;;5.30;;
14048;SDS011;7099;53.922;10.728;2022-12-08T15:55:03;5.73;;;4.47;;
14048;SDS011;7099;53.922;10.728;2022-12-08T15:59:12;7.50;;;5.50;;
14048;SDS011;7099;53.922;10.728;2022-12-08T16:03:29;8.13;;;6.00;;
14048;SDS011;7099;53.922;10.728;2022-12-08T16:07:55;8.50;;;6.20;;
14048;SDS011;7099;53.922;10.728;2022-12-08T16:12:01;9.33;;;6.40;;
14048;SDS011;7099;53.922;10.728;2022-12-08T16:16:26;9.27;;;5.80;;
14048;SDS011;7099;53.922;10.728;2022-12-08T16:20:33;10.53;;;7.80;;
14048;SDS011;7099;53.922;10.728;2022-12-08T16:24:58;9.57;;;6.00;;
14048;SDS011;7099;53.922;10.728;2022-12-08T16:29:18;10.07;;;6.43;;
14048;SDS011;7099;53.922;10.728;2022-12-08T16:33:24;11.50;;;7.00;;
14048;SDS011;7099;53.922;10.728;2022-12-08T16:37:29;10.60;;;6.90;;
14048;SDS011;7099;53.922;10.728;2022-12-08T16:41:34;11.50;;;6.80;;
14048;SDS011;7099;53.922;10.728;2022-12-08T16:45:57;9.87;;;6.70;;
14048;SDS011;7099;53.922;10.728;2022-12-08T16:50:03;10.17;;;6.60;;
14048;SDS011;7099;53.922;10.728;2022-12-08T16:54:17;10.87;;;6.47;;
14048;SDS011;7099;53.922;10.728;2022-12-08T16:58:22;9.00;;;6.10;;
14048;SDS011;7099;53.922;10.728;2022-12-08T17:02:27;10.60;;;7.30;;
14048;SDS011;7099;53.922;10.728;2022-12-08T17:06:32;10.50;;;6.20;;
14048;SDS011;7099;53.922;10.728;2022-12-08T17:10:37;9.00;;;6.60;;
14048;SDS011;7099;53.922;10.728;2022-12-08T17:14:43;12.43;;;7.10;;
14048;SDS011;7099;53.922;10.728;2022-12-08T17:18:48;7.77;;;6.00;;
14048;SDS011;7099;53.922;10.728;2022-12-08T17:22:54;10.80;;;6.70;;
14048;SDS011;7099;53.922;10.728;2022-12-08T17:27:01;8.70;;;6.00;;
14048;SDS011;7099;53.922;10.728;2022-12-08T17:31:10;7.87;;;5.60;;
14048;SDS011;7099;53.922;10.728;2022-12-08T17:35:17;10.57;;;6.53;;
14048;SDS011;7099;53.922;10.728;2022-12-08T17:55:49;12.53;;;8.03;;
14048;SDS011;7099;53.922;10.728;2022-12-08T18:00:00;10.17;;;7.00;;
14048;SDS011;7099;53.922;10.728;2022-12-08T18:04:07;10.97;;;7.33;;
14048;SDS011;7099;53.922;10.728;2022-12-08T18:08:13;9.83;;;6.00;;
14048;SDS011;7099;53.922;10.728;2022-12-08T18:12:18;11.03;;;7.00;;
14048;SDS011;7099;53.922;10.728;2022-12-08T18:16:27;13.00;;;8.30;;
14048;SDS011;7099;53.922;10.728;2022-12-08T18:20:32;11.00;;;8.00;;
14048;SDS011;7099;53.922;10.728;2022-12-08T18:24:38;12.53;;;8.60;;
14048;SDS011;7099;53.922;10.728;2022-12-08T18:28:42;16.30;;;10.63;;
14048;SDS011;7099;53.922;10.728;2022-12-08T18:32:47;20.70;;;11.63;;
14048;SDS011;7099;53.922;10.728;2022-12-08T18:37:00;18.97;;;10.73;;
14048;SDS011;7099;53.922;10.728;2022-12-08T18:41:10;18.20;;;9.80;;
14048;SDS011;7099;53.922;10.728;2022-12-08T18:45:21;26.80;;;14.70;;
14048;SDS011;7099;53.922;10.728;2022-12-08T18:49:26;37.13;;;17.20;;
14048;SDS011;7099;53.922;10.728;2022-12-08T18:53:31;25.47;;;15.17;;
14048;SDS011;7099;53.922;10.728;2022-12-08T18:57:36;23.77;;;13.03;;
14048;SDS011;7099;53.922;10.728;2022-12-08T19:01:43;21.17;;;12.77;;
14048;SDS011;7099;53.922;10.728;2022-12-08T19:05:48;25.50;;;13.43;;
14048;SDS011;7099;53.922;10.728;2022-12-08T19:09:53;18.93;;;11.97;;
14048;SDS011;7099;53.922;10.728;2022-12-08T19:13:59;20.00;;;12.47;;
14048;SDS011;7099;53.922;10.728;2022-12-08T19:18:04;19.80;;;11.87;;
14048;SDS011;7099;53.922;10.728;2022-12-08T19:22:09;20.10;;;11.90;;
14048;SDS011;7099;53.922;10.728;2022-12-08T19:26:15;19.80;;;11.67;;
14048;SDS011;7099;53.922;10.728;2022-12-08T19:30:21;18.97;;;10.90;;
14048;SDS011;7099;53.922;10.728;2022-12-08T19:34:27;17.00;;;11.03;;
14048;SDS011;7099;53.922;10.728;2022-12-08T19:38:32;23.67;;;12.43;;
14048;SDS011;7099;53.922;10.728;2022-12-08T19:42:57;19.63;;;10.53;;
14048;SDS011;7099;53.922;10.728;2022-12-08T19:47:24;16.27;;;9.60;;
14048;SDS011;7099;53.922;10.728;2022-12-08T19:51:30;14.33;;;10.00;;
14048;SDS011;7099;53.922;10.728;2022-12-08T19:55:35;16.20;;;9.70;;
14048;SDS011;7099;53.922;10.728;2022-12-08T19:59:41;16.90;;;11.13;;
14048;SDS011;7099;53.922;10.728;2022-12-08T20:03:46;20.50;;;11.53;;
14048;SDS011;7099;53.922;10.728;2022-12-08T20:07:51;33.20;;;17.40;;
14048;SDS011;7099;53.922;10.728;2022-12-08T20:11:58;44.93;;;25.17;;
14048;SDS011;7099;53.922;10.728;2022-12-08T20:16:03;33.10;;;16.80;;
14048;SDS011;7099;53.922;10.728;2022-12-08T20:20:10;40.30;;;18.47;;
14048;SDS011;7099;53.922;10.728;2022-12-08T20:24:17;35.53;;;18.03;;
14048;SDS011;7099;53.922;10.728;2022-12-08T20:28:23;42.20;;;18.80;;
14048;SDS011;7099;53.922;10.728;2022-12-08T20:32:28;38.67;;;17.57;;
14048;SDS011;7099;53.922;10.728;2022-12-08T20:36:33;38.83;;;16.07;;
14048;SDS011;7099;53.922;10.728;2022-12-08T20:40:42;36.10;;;16.43;;
14048;SDS011;7099;53.922;10.728;2022-12-08T20:44:49;25.67;;;13.67;;
14048;SDS011;7099;53.922;10.728;2022-12-08T20:48:54;30.10;;;15.23;;
14048;SDS011;7099;53.922;10.728;2022-12-08T20:52:59;33.13;;;16.70;;
14048;SDS011;7099;53.922;10.728;2022-12-08T20:57:04;30.77;;;15.17;;
14048;SDS011;7099;53.922;10.728;2022-12-08T21:01:10;29.60;;;15.10;;
14048;SDS011;7099;53.922;10.728;2022-12-08T21:05:18;36.57;;;16.57;;
14048;SDS011;7099;53.922;10.728;2022-12-08T21:09:24;39.63;;;16.60;;
14048;SDS011;7099;53.922;10.728;2022-12-08T21:13:29;32.00;;;16.17;;
14048;SDS011;7099;53.922;10.728;2022-12-08T21:17:34;30.13;;;15.03;;
14048;SDS011;7099;53.922;10.728;2022-12-08T21:21:39;29.10;;;16.03;;
14048;SDS011;7099;53.922;10.728;2022-12-08T21:25:45;25.70;;;14.60;;
14048;SDS011;7099;53.922;10.728;2022-12-08T21:29:50;33.80;;;14.57;;
14048;SDS011;7099;53.922;10.728;2022-12-08T21:33:59;38.20;;;16.50;;
14048;SDS011;7099;53.922;10.728;2022-12-08T21:38:05;34.67;;;16.47;;
14048;SDS011;7099;53.922;10.728;2022-12-08T21:42:10;38.97;;;17.83;;
14048;SDS011;7099;53.922;10.728;2022-12-08T21:46:37;39.63;;;17.03;;
14048;SDS011;7099;53.922;10.728;2022-12-08T21:50:42;35.63;;;17.50;;
14048;SDS011;7099;53.922;10.728;2022-12-08T21:54:47;41.27;;;16.17;;
14048;SDS011;7099;53.922;10.728;2022-12-08T21:58:53;38.20;;;16.70;;
14048;SDS011;7099;53.922;10.728;2022-12-08T22:02:58;42.30;;;17.03;;
14048;SDS011;7099;53.922;10.728;2022-12-08T22:07:06;37.10;;;16.67;;
14048;SDS011;7099;53.922;10.728;2022-12-08T22:11:12;30.27;;;15.33;;
14048;SDS011;7099;53.922;10.728;2022-12-08T22:15:18;37.97;;;15.83;;
14048;SDS011;7099;53.922;10.728;2022-12-08T22:19:23;32.27;;;14.40;;
14048;SDS011;7099;53.922;10.728;2022-12-08T22:23:27;35.60;;;15.50;;
14048;SDS011;7099;53.922;10.728;2022-12-08T22:27:32;33.97;;;14.77;;
14048;SDS011;7099;53.922;10.728;2022-12-08T22:31:37;28.73;;;15.40;;
14048;SDS011;7099;53.922;10.728;2022-12-08T22:35:42;37.60;;;16.57;;
14048;SDS011;7099;53.922;10.728;2022-12-08T22:39:47;33.20;;;14.50;;
14048;SDS011;7099;53.922;10.728;2022-12-08T22:43:53;39.17;;;16.17;;
14048;SDS011;7099;53.922;10.728;2022-12-08T22:47:58;38.50;;;16.10;;
14048;SDS011;7099;53.922;10.728;2022-12-08T22:52:03;35.80;;;15.03;;
14048;SDS011;7099;53.922;10.728;2022-12-08T22:56:08;31.83;;;14.73;;
14048;SDS011;7099;53.922;10.728;2022-12-08T23:00:15;34.37;;;14.43;;
14048;SDS011;7099;53.922;10.728;2022-12-08T23:04:22;31.50;;;14.50;;
14048;SDS011;7099;53.922;10.728;2022-12-08T23:08:27;35.30;;;14.40;;
14048;SDS011;7099;53.922;10.728;2022-12-08T23:12:32;36.93;;;14.13;;
14048;SDS011;7099;53.922;10.728;2022-12-08T23:16:38;36.07;;;15.07;;
14048;SDS011;7099;53.922;10.728;2022-12-08T23:20:43;26.80;;;13.33;;
14048;SDS011;7099;53.922;10.728;2022-12-08T23:24:50;27.47;;;13.47;;
14048;SDS011;7099;53.922;10.728;2022-12-08T23:28:55;27.40;;;13.17;;
14048;SDS011;7099;53.922;10.728;2022-12-08T23:33:01;25.97;;;13.30;;
14048;SDS011;7099;53.922;10.728;2022-12-08T23:37:06;25.17;;;13.10;;
14048;SDS011;7099;53.922;10.728;2022-12-08T23:41:11;25.63;;;12.10;;
14048;SDS011;7099;53.922;10.728;2022-12-08T23:45:18;20.90;;;10.60;;
14048;SDS011;7099;53.922;10.728;2022-12-08T23:49:23;23.60;;;12.07;;
14048;SDS011;7099;53.922;10.728;2022-12-08T23:53:28;24.07;;;12.00;;
14048;SDS011;7099;53.922;10.728;2022-12-08T23:57:35;24.40;;;12.67;;
